createdAt,value
2023-01-29T00:01:25.840Z,66.60
2023-01-29T00:03:53.313Z,66.60
2023-01-29T00:06:23.552Z,66.70
2023-01-29T00:08:50.807Z,66.80
2023-01-29T00:11:18.130Z,66.90
2023-01-29T00:13:45.336Z,66.90
2023-01-29T00:16:12.545Z,66.80
2023-01-29T00:18:40.491Z,66.80
2023-01-29T00:21:09.623Z,67.10
2023-01-29T00:23:38.249Z,66.90
2023-01-29T00:26:05.560Z,66.80
2023-01-29T00:28:32.925Z,66.80
2023-01-29T00:31:07.122Z,66.40
2023-01-29T00:33:34.396Z,66.80
2023-01-29T00:36:03.446Z,66.80
2023-01-29T00:38:31.066Z,66.80
2023-01-29T00:41:24.254Z,66.90
2023-01-29T00:44:10.569Z,67.20
2023-01-29T00:46:38.078Z,67.30
2023-01-29T00:49:06.032Z,67.20
2023-01-29T00:51:33.379Z,67.20
2023-01-29T00:54:02.554Z,67.30
2023-01-29T00:56:31.142Z,67.30
2023-01-29T00:58:58.341Z,67.10
2023-01-29T01:01:44.461Z,67.30
2023-01-29T01:04:12.997Z,67.50
2023-01-29T01:06:41.795Z,67.40
2023-01-29T01:09:28.982Z,67.50
2023-01-29T01:11:57.542Z,67.60
2023-01-29T01:14:24.766Z,67.30
2023-01-29T01:16:51.948Z,67.10
2023-01-29T01:19:19.119Z,67.40
2023-01-29T01:21:48.222Z,67.70
2023-01-29T01:24:15.531Z,68.00
2023-01-29T01:26:42.783Z,68.00
2023-01-29T01:29:12.684Z,68.10
2023-01-29T01:31:40.011Z,68.00
2023-01-29T01:34:07.273Z,68.00
2023-01-29T01:36:34.621Z,68.10
2023-01-29T01:39:01.828Z,68.10
2023-01-29T01:41:30.594Z,68.10
2023-01-29T01:43:59.440Z,68.30
2023-01-29T01:46:29.637Z,68.50
2023-01-29T01:49:01.482Z,68.20
2023-01-29T01:51:31.856Z,68.20
2023-01-29T01:54:03.841Z,68.10
2023-01-29T01:56:38.201Z,68.00
2023-01-29T01:59:07.433Z,68.30
2023-01-29T02:01:38.222Z,68.10
2023-01-29T02:04:27.893Z,68.10
2023-01-29T02:07:16.062Z,68.10
2023-01-29T02:09:51.331Z,68.30
2023-01-29T02:12:19.768Z,68.70
2023-01-29T02:14:47.551Z,68.80
2023-01-29T02:17:18.404Z,68.80
2023-01-29T02:19:51.936Z,68.60
2023-01-29T02:22:36.409Z,68.50
2023-01-29T02:25:22.529Z,68.50
2023-01-29T02:28:18.742Z,68.20
2023-01-29T02:30:52.795Z,68.20
2023-01-29T02:33:30.068Z,68.20
2023-01-29T02:36:06.695Z,68.30
2023-01-29T02:38:41.812Z,68.30
2023-01-29T02:41:15.114Z,67.90
2023-01-29T02:43:47.328Z,68.10
2023-01-29T02:46:24.485Z,68.40
2023-01-29T02:48:59.240Z,68.20
2023-01-29T02:51:31.840Z,68.20
2023-01-29T02:54:05.934Z,68.20
2023-01-29T02:56:38.948Z,68.60
2023-01-29T02:59:11.848Z,68.40
2023-01-29T03:01:44.843Z,68.70
2023-01-29T03:04:16.059Z,68.60
2023-01-29T03:06:46.393Z,68.50
2023-01-29T03:09:19.919Z,68.40
2023-01-29T03:11:51.597Z,68.70
2023-01-29T03:14:49.140Z,68.70
2023-01-29T03:17:17.079Z,68.70
2023-01-29T03:19:46.770Z,68.70
2023-01-29T03:22:25.463Z,68.80
2023-01-29T03:25:15.529Z,68.70
2023-01-29T03:28:07.560Z,68.50
2023-01-29T03:31:05.880Z,68.60
2023-01-29T03:33:47.190Z,69.00
2023-01-29T03:36:18.731Z,69.00
2023-01-29T03:38:46.287Z,69.30
2023-01-29T03:41:23.005Z,69.50
2023-01-29T03:43:56.382Z,69.50
2023-01-29T03:46:32.006Z,69.30
2023-01-29T03:49:08.205Z,69.50
2023-01-29T03:51:41.851Z,69.30
2023-01-29T03:54:18.254Z,69.30
2023-01-29T03:56:56.925Z,69.40
2023-01-29T03:59:36.112Z,69.30
2023-01-29T04:02:21.937Z,69.00
2023-01-29T04:04:51.925Z,69.20
2023-01-29T04:07:24.387Z,69.60
2023-01-29T04:10:02.950Z,69.90
2023-01-29T04:12:38.560Z,69.80
2023-01-29T04:15:10.905Z,69.90
2023-01-29T04:17:42.752Z,69.60
2023-01-29T04:20:16.679Z,69.60
2023-01-29T04:22:46.495Z,70.20
2023-01-29T04:25:17.415Z,70.20
2023-01-29T04:27:56.110Z,70.50
2023-01-29T04:30:33.476Z,70.20
2023-01-29T04:33:15.411Z,70.00
2023-01-29T04:35:54.203Z,70.00
2023-01-29T04:38:31.800Z,70.30
2023-01-29T04:41:05.689Z,70.80
2023-01-29T04:43:39.499Z,70.90
2023-01-29T04:46:13.804Z,71.00
2023-01-29T04:48:55.632Z,71.80
2023-01-29T04:51:30.737Z,71.50
2023-01-29T04:54:02.618Z,71.60
2023-01-29T04:56:37.381Z,71.60
2023-01-29T04:59:07.443Z,71.90
2023-01-29T05:01:37.889Z,71.90
2023-01-29T05:04:09.958Z,71.90
2023-01-29T05:06:39.088Z,71.90
2023-01-29T05:09:07.671Z,71.70
2023-01-29T05:11:36.775Z,72.30
2023-01-29T05:14:07.074Z,72.20
2023-01-29T05:16:44.392Z,72.20
2023-01-29T05:19:16.000Z,72.20
2023-01-29T05:21:45.942Z,72.50
2023-01-29T05:24:15.550Z,72.70
2023-01-29T05:27:03.095Z,73.00
2023-01-29T05:29:30.316Z,73.30
2023-01-29T05:31:57.659Z,73.60
2023-01-29T05:34:26.285Z,73.90
2023-01-29T05:36:53.601Z,74.20
2023-01-29T05:39:20.951Z,74.60
2023-01-29T05:41:48.175Z,74.90
2023-01-29T05:44:15.364Z,74.90
2023-01-29T05:46:43.823Z,75.00
2023-01-29T05:49:11.047Z,75.00
2023-01-29T05:51:39.587Z,75.30
2023-01-29T05:54:06.817Z,75.60
2023-01-29T05:56:34.069Z,75.30
2023-01-29T05:59:01.282Z,75.50
2023-01-29T06:01:28.530Z,75.50
2023-01-29T06:03:55.716Z,75.60
2023-01-29T06:06:22.984Z,75.20
2023-01-29T06:08:51.466Z,75.50
2023-01-29T06:11:18.876Z,76.00
2023-01-29T06:13:46.335Z,76.10
2023-01-29T06:16:14.293Z,76.10
2023-01-29T06:18:41.943Z,76.30
2023-01-29T06:21:11.319Z,76.10
2023-01-29T06:23:39.002Z,75.90
2023-01-29T06:26:10.948Z,75.80
2023-01-29T06:28:38.411Z,76.10
2023-01-29T06:31:24.354Z,76.20
2023-01-29T06:33:54.573Z,76.30
2023-01-29T06:36:21.796Z,76.30
2023-01-29T06:38:49.047Z,76.50
2023-01-29T06:41:19.212Z,76.40
2023-01-29T06:43:47.749Z,76.40
2023-01-29T06:46:14.991Z,76.60
2023-01-29T06:48:42.205Z,76.70
2023-01-29T06:51:22.928Z,76.60
2023-01-29T06:53:50.143Z,76.70
2023-01-29T06:56:18.666Z,76.80
2023-01-29T06:58:45.947Z,76.80
2023-01-29T07:01:25.481Z,77.00
2023-01-29T07:04:00.668Z,77.10
2023-01-29T07:06:28.870Z,77.20
2023-01-29T07:08:56.720Z,77.10
2023-01-29T07:11:25.405Z,77.10
2023-01-29T07:13:52.618Z,77.10
2023-01-29T07:16:19.859Z,77.00
2023-01-29T07:18:47.077Z,77.30
2023-01-29T07:21:14.333Z,77.30
2023-01-29T07:23:41.574Z,77.20
2023-01-29T07:26:10.343Z,77.20
2023-01-29T07:28:40.739Z,77.30
2023-01-29T07:31:10.054Z,77.30
2023-01-29T07:33:37.300Z,77.20
2023-01-29T07:36:07.888Z,77.20
2023-01-29T07:38:35.409Z,77.40
2023-01-29T07:41:03.411Z,77.70
2023-01-29T07:43:30.800Z,77.40
2023-01-29T07:46:01.850Z,77.80
2023-01-29T07:48:29.318Z,77.90
2023-01-29T07:50:57.183Z,78.00
2023-01-29T07:53:24.602Z,78.20
2023-01-29T07:55:52.044Z,78.20
2023-01-29T07:58:19.578Z,78.30
2023-01-29T08:00:47.009Z,78.50
2023-01-29T08:03:18.354Z,78.70
2023-01-29T08:05:45.878Z,78.80
2023-01-29T08:08:13.533Z,79.00
2023-01-29T08:10:41.736Z,78.90
2023-01-29T08:13:09.582Z,78.90
2023-01-29T08:18:25.531Z,79.60
2023-01-29T08:20:52.999Z,80.30
2023-01-29T08:23:20.368Z,80.40
2023-01-29T08:25:47.643Z,80.50
2023-01-29T08:28:14.915Z,80.20
2023-01-29T08:30:44.005Z,79.80
2023-01-29T08:33:11.277Z,79.70
2023-01-29T08:35:41.146Z,79.70
2023-01-29T08:38:09.547Z,79.60
2023-01-29T08:40:36.840Z,79.40
2023-01-29T08:43:07.844Z,79.30
2023-01-29T08:45:38.003Z,79.10
2023-01-29T08:48:05.820Z,78.90
2023-01-29T08:50:34.825Z,78.70
2023-01-29T08:53:07.729Z,78.90
2023-01-29T08:55:46.135Z,79.00
2023-01-29T08:58:13.354Z,78.90
2023-01-29T09:00:40.701Z,79.00
2023-01-29T09:03:08.207Z,79.40
2023-01-29T09:05:35.854Z,79.60
2023-01-29T09:08:05.844Z,79.80
2023-01-29T09:10:37.185Z,79.80
2023-01-29T09:13:05.290Z,79.90
2023-01-29T09:15:44.190Z,80.00
2023-01-29T09:18:11.558Z,80.20
2023-01-29T09:20:38.852Z,80.20
2023-01-29T09:23:09.044Z,80.00
2023-01-29T09:25:36.787Z,80.10
2023-01-29T09:28:04.372Z,80.20
2023-01-29T09:30:33.344Z,80.10
2023-01-29T09:33:01.381Z,80.30
2023-01-29T09:35:28.580Z,80.20
2023-01-29T09:37:55.811Z,80.00
2023-01-29T09:40:29.705Z,79.70
2023-01-29T09:43:02.593Z,79.50
2023-01-29T09:45:30.626Z,79.50
2023-01-29T09:48:01.398Z,79.30
2023-01-29T09:50:37.184Z,79.20
2023-01-29T09:53:14.525Z,79.00
2023-01-29T09:55:48.995Z,79.20
2023-01-29T09:58:22.782Z,79.00
2023-01-29T10:00:58.796Z,78.90
2023-01-29T10:03:41.821Z,78.90
2023-01-29T10:06:23.223Z,78.60
2023-01-29T10:09:14.217Z,78.60
2023-01-29T10:11:48.905Z,78.50
2023-01-29T10:14:23.538Z,78.40
2023-01-29T10:17:07.210Z,78.40
2023-01-29T10:19:48.498Z,78.20
2023-01-29T10:22:45.708Z,78.40
2023-01-29T10:25:16.071Z,78.20
2023-01-29T10:27:49.737Z,77.90
2023-01-29T10:30:30.680Z,77.90
2023-01-29T10:33:01.748Z,77.60
2023-01-29T10:35:33.454Z,77.20
2023-01-29T10:38:15.761Z,77.40
2023-01-29T10:40:48.769Z,77.10
2023-01-29T10:43:22.792Z,76.70
2023-01-29T10:45:59.607Z,76.30
2023-01-29T10:48:40.528Z,76.40
2023-01-29T10:51:19.167Z,76.40
2023-01-29T10:53:58.327Z,75.30
2023-01-29T10:56:43.845Z,75.50
2023-01-29T10:59:29.031Z,75.60
2023-01-29T11:01:58.153Z,75.30
2023-01-29T11:04:26.651Z,75.20
2023-01-29T11:06:54.051Z,74.60
2023-01-29T11:09:29.554Z,74.90
2023-01-29T11:12:01.024Z,74.50
2023-01-29T11:14:36.276Z,74.60
2023-01-29T11:17:04.383Z,74.50
2023-01-29T11:19:39.394Z,73.70
2023-01-29T11:22:14.368Z,73.50
2023-01-29T11:24:41.837Z,73.90
2023-01-29T11:27:21.823Z,73.10
2023-01-29T11:29:50.945Z,72.80
2023-01-29T11:32:26.132Z,72.30
2023-01-29T11:34:57.707Z,72.60
2023-01-29T11:37:32.975Z,72.60
2023-01-29T11:40:00.234Z,72.20
2023-01-29T11:42:31.336Z,72.30
2023-01-29T11:45:00.792Z,71.70
2023-01-29T11:47:29.762Z,71.60
2023-01-29T11:49:58.225Z,71.50
2023-01-29T11:52:33.901Z,71.40
2023-01-29T11:55:04.353Z,70.80
2023-01-29T11:57:34.114Z,70.70
2023-01-29T12:00:07.088Z,70.80
2023-01-29T12:02:41.923Z,70.50
2023-01-29T12:05:16.917Z,71.00
2023-01-29T12:07:46.102Z,70.60
2023-01-29T12:10:33.049Z,70.70
2023-01-29T12:13:20.799Z,70.70
2023-01-29T12:15:49.772Z,70.60
2023-01-29T12:18:23.348Z,70.80
2023-01-29T12:20:56.079Z,70.30
2023-01-29T12:23:31.431Z,70.70
2023-01-29T12:26:02.755Z,70.30
2023-01-29T12:28:42.229Z,70.20
2023-01-29T12:31:27.516Z,69.70
2023-01-29T12:34:04.290Z,70.10
2023-01-29T12:36:38.514Z,69.80
2023-01-29T12:39:05.816Z,69.80
2023-01-29T12:41:39.500Z,69.90
2023-01-29T12:44:12.829Z,70.30
2023-01-29T12:46:44.319Z,69.80
2023-01-29T12:49:16.670Z,69.80
2023-01-29T12:51:54.402Z,69.40
2023-01-29T12:54:31.171Z,69.30
2023-01-29T12:57:03.136Z,69.40
2023-01-29T12:59:36.167Z,69.90
2023-01-29T13:02:18.818Z,69.70
2023-01-29T13:04:53.761Z,69.60
2023-01-29T13:07:26.008Z,69.70
2023-01-29T13:09:57.117Z,69.40
2023-01-29T13:12:25.300Z,69.40
2023-01-29T13:14:56.012Z,69.30
2023-01-29T13:17:31.124Z,69.70
2023-01-29T13:20:03.898Z,69.60
2023-01-29T13:22:36.673Z,69.50
2023-01-29T13:25:05.784Z,69.80
2023-01-29T13:27:34.963Z,69.50
2023-01-29T13:30:03.201Z,69.60
2023-01-29T13:32:34.888Z,69.40
2023-01-29T13:35:06.488Z,69.70
2023-01-29T13:37:36.219Z,69.30
2023-01-29T13:40:07.072Z,69.60
2023-01-29T13:42:42.027Z,69.50
2023-01-29T13:45:19.940Z,69.60
2023-01-29T13:47:49.925Z,69.40
2023-01-29T13:50:24.746Z,69.50
2023-01-29T13:52:57.199Z,69.40
2023-01-29T13:55:31.160Z,69.70
2023-01-29T13:57:59.346Z,69.90
2023-01-29T14:00:56.871Z,69.80
2023-01-29T14:04:08.112Z,70.40
2023-01-29T14:06:50.213Z,69.70
2023-01-29T14:09:46.289Z,70.40
2023-01-29T14:12:33.081Z,70.20
2023-01-29T14:15:14.382Z,70.30
2023-01-29T14:17:59.712Z,70.40
2023-01-29T14:20:50.851Z,70.70
2023-01-29T14:23:27.954Z,70.80
2023-01-29T14:25:56.109Z,70.90
2023-01-29T14:28:28.135Z,71.50
2023-01-29T14:30:55.853Z,72.20
2023-01-29T14:33:27.962Z,72.60
2023-01-29T14:35:57.518Z,72.80
2023-01-29T14:38:28.504Z,72.90
2023-01-29T14:41:05.936Z,72.90
2023-01-29T14:43:33.546Z,73.10
2023-01-29T14:46:34.237Z,73.20
2023-01-29T14:49:01.788Z,73.80
2023-01-29T14:51:37.633Z,74.00
2023-01-29T14:54:14.585Z,74.30
2023-01-29T14:56:46.857Z,74.70
2023-01-29T14:59:19.589Z,74.40
2023-01-29T15:01:52.315Z,74.40
2023-01-29T15:04:23.486Z,74.10
2023-01-29T15:06:57.296Z,74.30
2023-01-29T15:09:36.732Z,75.00
2023-01-29T15:12:14.220Z,74.90
2023-01-29T15:14:47.579Z,74.90
2023-01-29T15:17:21.864Z,75.10
2023-01-29T15:19:49.703Z,75.00
2023-01-29T15:22:19.682Z,75.20
2023-01-29T15:24:48.438Z,75.20
2023-01-29T15:27:17.731Z,75.40
2023-01-29T15:29:51.667Z,75.40
2023-01-29T15:32:28.224Z,75.50
2023-01-29T15:34:56.363Z,76.00
2023-01-29T15:37:30.539Z,75.80
2023-01-29T15:39:59.790Z,75.80
2023-01-29T15:42:28.824Z,76.00
2023-01-29T15:44:56.503Z,76.10
2023-01-29T15:47:27.785Z,76.20
2023-01-29T15:49:57.210Z,76.00
2023-01-29T15:52:29.361Z,76.20
2023-01-29T15:54:58.047Z,76.40
2023-01-29T15:57:30.016Z,76.50
2023-01-29T15:59:58.505Z,76.70
2023-01-29T16:02:36.087Z,76.40
2023-01-29T16:05:05.254Z,76.00
2023-01-29T16:07:34.776Z,76.50
2023-01-29T16:10:02.778Z,76.80
2023-01-29T16:12:32.344Z,76.50
2023-01-29T16:15:03.364Z,76.50
2023-01-29T16:17:35.361Z,76.30
2023-01-29T16:20:05.936Z,76.50
2023-01-29T16:22:37.164Z,76.30
2023-01-29T16:25:06.319Z,76.50
2023-01-29T16:27:34.701Z,76.30
2023-01-29T16:30:04.082Z,76.30
2023-01-29T16:32:31.726Z,76.10
2023-01-29T16:34:59.963Z,76.30
2023-01-29T16:37:29.542Z,76.70
2023-01-29T16:39:58.431Z,76.40
2023-01-29T16:42:29.639Z,76.80
2023-01-29T16:44:59.814Z,76.00
2023-01-29T16:47:33.967Z,76.30
2023-01-29T16:50:03.388Z,76.20
2023-01-29T16:52:31.958Z,76.00
2023-01-29T16:55:16.280Z,75.90
2023-01-29T16:57:47.576Z,75.60
2023-01-29T17:00:21.748Z,75.70
2023-01-29T17:02:51.618Z,75.80
2023-01-29T17:05:23.327Z,75.70
2023-01-29T17:07:50.939Z,75.60
2023-01-29T17:10:21.578Z,76.20
2023-01-29T17:12:55.606Z,76.10
2023-01-29T17:15:34.461Z,76.20
2023-01-29T17:18:02.432Z,75.90
2023-01-29T17:20:33.714Z,75.70
2023-01-29T17:23:01.165Z,76.20
2023-01-29T17:25:29.776Z,76.50
2023-01-29T17:28:00.647Z,76.00
2023-01-29T17:30:31.363Z,75.80
2023-01-29T17:32:58.759Z,75.80
2023-01-29T17:35:26.226Z,75.90
2023-01-29T17:37:53.513Z,75.90
2023-01-29T17:40:33.211Z,75.90
2023-01-29T17:43:03.550Z,75.70
2023-01-29T17:45:30.918Z,76.10
2023-01-29T17:47:58.621Z,75.80
2023-01-29T17:50:28.275Z,76.10
2023-01-29T17:52:55.630Z,76.10
2023-01-29T17:55:22.974Z,76.20
2023-01-29T17:57:51.507Z,75.90
2023-01-29T18:00:21.132Z,76.00
2023-01-29T18:02:48.664Z,75.90
2023-01-29T18:05:17.373Z,76.20
2023-01-29T18:07:46.549Z,76.20
2023-01-29T18:10:17.060Z,76.10
2023-01-29T18:12:44.706Z,76.00
2023-01-29T18:15:13.884Z,76.00
2023-01-29T18:17:41.555Z,75.80
2023-01-29T18:20:26.880Z,75.60
2023-01-29T18:22:54.267Z,75.90
2023-01-29T18:25:23.583Z,75.90
2023-01-29T18:27:52.407Z,76.00
2023-01-29T18:30:21.420Z,75.90
2023-01-29T18:32:50.390Z,75.60
2023-01-29T18:35:18.024Z,75.80
2023-01-29T18:37:45.659Z,75.40
2023-01-29T18:40:17.521Z,75.50
2023-01-29T18:42:45.678Z,75.50
2023-01-29T18:45:16.732Z,75.30
2023-01-29T18:47:46.335Z,76.70
2023-01-29T18:50:13.665Z,76.60
2023-01-29T18:52:41.320Z,75.70
2023-01-29T18:55:09.813Z,75.50
2023-01-29T18:58:25.219Z,75.40
2023-01-29T19:00:26.301Z,75.40
2023-01-29T19:02:54.791Z,75.30
2023-01-29T19:05:23.720Z,75.40
2023-01-29T19:07:52.061Z,75.50
2023-01-29T19:10:19.489Z,75.00
2023-01-29T19:12:46.732Z,75.10
2023-01-29T19:15:13.989Z,75.00
2023-01-29T19:17:41.182Z,75.20
2023-01-29T19:20:11.755Z,74.90
2023-01-29T19:22:39.797Z,74.60
2023-01-29T19:25:08.206Z,74.90
2023-01-29T19:27:35.426Z,74.50
2023-01-29T19:30:05.490Z,74.80
2023-01-29T19:32:33.050Z,75.00
2023-01-29T19:35:00.564Z,74.50
2023-01-29T19:37:30.811Z,74.90
2023-01-29T19:39:58.319Z,75.30
2023-01-29T19:42:25.539Z,75.00
2023-01-29T19:44:53.380Z,75.20
2023-01-29T19:47:20.773Z,75.20
2023-01-29T19:49:48.084Z,75.20
2023-01-29T19:52:45.169Z,75.10
2023-01-29T19:55:20.448Z,74.70
2023-01-29T19:57:48.309Z,74.70
2023-01-29T20:00:17.436Z,74.50
2023-01-29T20:02:44.701Z,74.50
2023-01-29T20:05:12.945Z,74.10
2023-01-29T20:07:42.411Z,74.10
2023-01-29T20:10:16.758Z,73.80
2023-01-29T20:12:46.108Z,73.60
2023-01-29T20:15:14.622Z,73.30
2023-01-29T20:17:42.141Z,72.80
2023-01-29T20:20:10.698Z,73.00
2023-01-29T20:22:38.014Z,72.80
2023-01-29T20:25:05.968Z,73.00
2023-01-29T20:27:33.178Z,72.70
2023-01-29T20:30:01.697Z,72.70
2023-01-29T20:32:29.727Z,72.80
2023-01-29T20:34:56.938Z,73.00
2023-01-29T20:37:24.498Z,72.80
2023-01-29T20:39:51.686Z,72.50
2023-01-29T20:42:18.880Z,72.70
2023-01-29T20:44:46.093Z,73.00
2023-01-29T20:47:14.772Z,72.90
2023-01-29T20:49:41.993Z,73.20
2023-01-29T20:52:10.693Z,73.40
2023-01-29T20:54:37.904Z,73.30
2023-01-29T20:57:05.342Z,73.40
2023-01-29T20:59:32.648Z,73.20
2023-01-29T21:01:59.868Z,73.00
2023-01-29T21:04:31.211Z,73.60
2023-01-29T21:06:58.420Z,73.40
2023-01-29T21:09:25.660Z,73.40
2023-01-29T21:11:52.905Z,73.40
2023-01-29T21:14:20.530Z,73.40
2023-01-29T21:16:47.758Z,73.20
2023-01-29T21:19:15.129Z,73.20
2023-01-29T21:21:43.663Z,73.40
2023-01-29T21:24:12.889Z,73.00
2023-01-29T21:26:40.141Z,73.10
2023-01-29T21:29:07.353Z,72.90
2023-01-29T21:31:34.636Z,73.10
2023-01-29T21:34:01.897Z,73.40
2023-01-29T21:36:29.212Z,73.20
2023-01-29T21:38:57.836Z,73.30
2023-01-29T21:41:45.161Z,73.70
2023-01-29T21:44:12.563Z,73.50
2023-01-29T21:46:39.790Z,73.50
2023-01-29T21:49:07.160Z,73.40
2023-01-29T21:51:34.395Z,73.60
2023-01-29T21:54:03.445Z,73.40
2023-01-29T21:56:30.627Z,73.10
2023-01-29T21:59:00.673Z,73.10
2023-01-29T22:01:37.514Z,73.50
2023-01-29T22:04:08.112Z,73.40
2023-01-29T22:06:35.333Z,73.50
2023-01-29T22:09:03.948Z,73.60
2023-01-29T22:11:31.291Z,73.80
2023-01-29T22:13:58.512Z,74.00
2023-01-29T22:16:25.820Z,73.70
2023-01-29T22:18:52.998Z,73.60
2023-01-29T22:21:20.245Z,73.60
2023-01-29T22:23:49.311Z,73.40
2023-01-29T22:26:17.921Z,73.40
2023-01-29T22:28:45.145Z,73.10
2023-01-29T22:31:12.721Z,72.90
2023-01-29T22:33:40.265Z,72.80
2023-01-29T22:36:08.317Z,73.20
2023-01-29T22:38:35.693Z,73.00
2023-01-29T22:41:04.584Z,72.70
2023-01-29T22:43:33.095Z,73.10
2023-01-29T22:46:00.474Z,73.00
2023-01-29T22:48:28.538Z,72.90
2023-01-29T22:51:09.216Z,73.00
2023-01-29T22:53:37.752Z,72.70
2023-01-29T22:56:06.362Z,72.40
2023-01-29T22:58:35.055Z,72.20
2023-01-29T23:01:02.335Z,72.50
2023-01-29T23:03:29.799Z,72.40
2023-01-29T23:05:57.025Z,72.40
2023-01-29T23:08:24.205Z,72.30
2023-01-29T23:10:51.673Z,72.10
2023-01-29T23:13:19.503Z,71.70
2023-01-29T23:15:57.909Z,71.50
2023-01-29T23:18:25.169Z,71.80
2023-01-29T23:20:56.699Z,71.70
2023-01-29T23:23:23.883Z,71.50
2023-01-29T23:26:15.388Z,71.30
2023-01-29T23:28:43.012Z,71.50
2023-01-29T23:31:12.150Z,71.40
2023-01-29T23:33:39.347Z,71.60
2023-01-29T23:36:07.796Z,71.80
2023-01-29T23:38:35.009Z,71.70
2023-01-29T23:41:02.224Z,71.50
2023-01-29T23:43:30.242Z,71.40
2023-01-29T23:45:57.693Z,71.00
2023-01-29T23:48:26.222Z,71.00
2023-01-29T23:50:53.538Z,71.00
2023-01-29T23:53:20.713Z,71.20
2023-01-29T23:55:56.735Z,71.40
2023-01-29T23:58:24.311Z,71.30
